Overview Statistics Trail Chart Weather Telemetry Raw packets
 

This is the latest recevied weather packets stored in our database for station/object N0NB. If no packets are shown the sender has not sent any weather packets the latest 10 day(s).

<< 32 33 34 35 36 37 38 >>
Time Temp. Humidity Pressure Rain* Wind** Luminosity Snow
1788163817 26.11° C 66% 1009.6 hPa 0 mm - 0 W/m² -
1788163217 26.67° C 65% 1009.8 hPa 0 mm - 0 W/m² -
1788162617 26.67° C 65% 1009.7 hPa 0 mm - 0 W/m² -
1788162017 26.67° C 64% 1009.7 hPa 0 mm - 0 W/m² -
1788161417 27.22° C 63% 1009.6 hPa 0 mm - 0 W/m² -
1788160817 27.22° C 63% 1009.7 hPa 0 mm - 0 W/m² -
1788160217 27.22° C 63% 1009.7 hPa 0 mm - 0 W/m² -
1788159617 27.22° C 63% 1009.6 hPa 0 mm - 0 W/m² -
1788159017 27.78° C 63% 1009.7 hPa 0 mm - 0 W/m² -
1788158417 27.78° C 62% 1009.9 hPa 0 mm - 0 W/m² -
1788157817 28.33° C 62% 1010.1 hPa 0 mm - 0 W/m² -
1788157217 28.33° C 62% 1010 hPa 0 mm - 0 W/m² -
1788156617 28.33° C 61% 1010 hPa 0 mm - 0 W/m² -
1788156017 28.89° C 60% 1009.8 hPa 0 mm - 0 W/m² -
1788155417 28.89° C 60% 1009.7 hPa 0 mm - 0 W/m² -
1788154817 28.33° C 62% 1009.4 hPa 0 mm - 0 W/m² -
1788154217 27.22° C 68% 1009.2 hPa 0 mm - 0 W/m² -
1788153617 25.56° C 72% 1009 hPa 0 mm - 0 W/m² -
1788153017 25° C 77% 1008.7 hPa 0 mm - 0 W/m² -
1788152417 25° C 78% 1008.7 hPa 0 mm - 0 W/m² -
1788151816 25.56° C 75% 1008.8 hPa 0 mm - 0 W/m² -
1788151216 26.11° C 74% 1008.9 hPa 0 mm - 0 W/m² -
1788150616 26.11° C 74% 1008.6 hPa 0 mm - 0 W/m² -
1788150016 26.11° C 75% 1008.6 hPa 0 mm - 0 W/m² -
1788149416 25.56° C 77% 1008.5 hPa 0 mm - 0 W/m² -

* Rain latest hour (hover to see other rain measurements)
** Current wind speed in m/s (hover to see current wind gust speed)